Time;durP1;ratioP1;P1;durP2;ratioP2;P2;SDS_P1;SDS_P2;PMS_P1;PMS_P2;Temp;Humidity;BMP_temperature;BMP_pressure;BME280_temperature;BME280_humidity;BME280_pressure;Samples;Min_cycle;Max_cycle;Signal;HPM_P1;HPM_P2
2021/06/23 00:01:36;;;;;;;6.47;1.48;;;18.50;61.80;;;;;;5117841;28;20121;-70
2021/06/23 00:04:02;;;;;;;3.65;1.08;;;18.50;61.90;;;;;;5117004;28;20096;-71
2021/06/23 00:06:28;;;;;;;5.63;1.35;;;18.50;61.90;;;;;;5117256;27;20043;-71
2021/06/23 00:08:54;;;;;;;3.13;1.20;;;18.50;62.00;;;;;;5117786;28;20052;-71
2021/06/23 00:11:20;;;;;;;3.35;1.13;;;18.50;62.10;;;;;;5117456;28;20336;-71
2021/06/23 00:13:46;;;;;;;5.75;0.98;;;18.50;62.20;;;;;;5117647;28;20043;-71
2021/06/23 00:16:12;;;;;;;2.97;1.38;;;18.50;62.30;;;;;;5117693;28;20047;-71
2021/06/23 00:18:38;;;;;;;4.95;1.02;;;18.50;62.30;;;;;;5117337;28;20048;-71
2021/06/23 00:21:04;;;;;;;6.63;1.00;;;18.50;62.40;;;;;;5117108;28;20169;-71
2021/06/23 00:23:31;;;;;;;6.10;1.25;;;18.50;62.30;;;;;;5117260;28;20085;-71
2021/06/23 00:25:57;;;;;;;3.55;1.08;;;18.40;62.40;;;;;;5117247;28;20063;-70
2021/06/23 00:28:23;;;;;;;5.53;1.15;;;18.50;62.50;;;;;;5117971;28;20156;-70
2021/06/23 00:30:50;;;;;;;3.58;1.42;;;18.50;62.40;;;;;;5117248;28;20048;-71
2021/06/23 00:33:20;;;;;;;7.35;1.45;;;18.50;62.40;;;;;;5116964;28;20354;-71
2021/06/23 00:35:46;;;;;;;4.40;1.40;;;18.50;62.30;;;;;;5117435;28;20036;-71
2021/06/23 00:38:13;;;;;;;5.88;1.38;;;18.50;62.30;;;;;;5117599;28;20051;-71
2021/06/23 00:40:39;;;;;;;3.88;1.30;;;18.50;62.10;;;;;;5117191;28;20124;-71
2021/06/23 00:43:05;;;;;;;1.85;0.90;;;18.40;62.80;;;;;;5117447;28;20460;-71
2021/06/23 00:45:33;;;;;;;4.13;1.50;;;18.40;62.10;;;;;;5117695;28;20090;-70
2021/06/23 00:47:59;;;;;;;3.25;1.23;;;18.40;62.20;;;;;;5116941;28;20477;-71
2021/06/23 00:50:26;;;;;;;3.92;1.55;;;18.40;62.10;;;;;;5117094;28;20393;-70
2021/06/23 00:52:53;;;;;;;4.13;1.58;;;18.40;62.10;;;;;;5116706;28;20146;-71
2021/06/23 00:55:24;;;;;;;3.30;1.15;;;18.40;62.10;;;;;;5116689;28;20442;-71
2021/06/23 00:57:54;;;;;;;3.75;1.20;;;18.40;62.10;;;;;;5116474;28;20123;-71
2021/06/23 01:00:29;;;;;;;2.90;1.25;;;18.40;62.00;;;;;;5116255;28;20101;-71
2021/06/23 01:02:58;;;;;;;2.45;0.85;;;18.40;61.90;;;;;;5095965;28;20055;-70
2021/06/23 01:05:24;;;;;;;3.53;1.40;;;18.40;61.90;;;;;;5096216;28;20126;-71
2021/06/23 01:07:50;;;;;;;4.45;1.60;;;18.40;61.90;;;;;;5095561;28;20347;-71
2021/06/23 01:10:16;;;;;;;2.78;0.95;;;18.40;61.90;;;;;;5096180;28;20044;-71
2021/06/23 01:13:02;;;;;;;4.80;1.60;;;18.40;61.90;;;;;;5095882;28;20044;-72
2021/06/23 01:15:29;;;;;;;3.22;1.20;;;18.40;61.70;;;;;;5096130;28;20109;-71
2021/06/23 01:17:55;;;;;;;4.43;1.30;;;18.40;62.00;;;;;;5093161;28;20040;-71
2021/06/23 01:20:21;;;;;;;5.95;1.42;;;18.40;62.00;;;;;;5075751;28;20056;-71
2021/06/23 01:22:47;;;;;;;4.85;1.42;;;18.40;61.90;;;;;;5075513;28;20048;-71
2021/06/23 01:25:15;;;;;;;4.55;1.50;;;18.30;62.00;;;;;;5075597;28;20040;-71
2021/06/23 01:27:43;;;;;;;3.72;1.40;;;18.40;62.10;;;;;;5075094;28;20053;-71
2021/06/23 01:30:12;;;;;;;5.00;1.42;;;18.30;62.00;;;;;;5076017;28;20040;-71
2021/06/23 01:32:38;;;;;;;5.43;1.60;;;18.30;61.90;;;;;;5074904;28;20162;-71
2021/06/23 01:35:04;;;;;;;2.65;1.08;;;18.40;62.10;;;;;;5074846;28;20090;-71
2021/06/23 01:37:30;;;;;;;3.97;1.35;;;18.30;62.10;;;;;;5075400;28;20044;-70
2021/06/23 01:39:59;;;;;;;3.85;1.50;;;18.30;62.20;;;;;;5075134;28;20080;-71
2021/06/23 01:42:25;;;;;;;4.30;1.50;;;18.30;62.20;;;;;;5075580;28;20041;-71
2021/06/23 01:44:51;;;;;;;5.05;1.40;;;18.30;62.20;;;;;;5075160;28;20097;-71
2021/06/23 01:47:16;;;;;;;5.53;1.65;;;18.30;62.10;;;;;;5075256;28;20139;-71
2021/06/23 01:49:42;;;;;;;3.50;1.50;;;18.30;62.10;;;;;;5075154;28;20052;-71
2021/06/23 01:52:08;;;;;;;2.63;0.93;;;18.30;62.20;;;;;;5075393;28;20345;-71
2021/06/23 01:54:42;;;;;;;4.30;1.45;;;18.30;62.20;;;;;;5075741;28;20379;-71
2021/06/23 01:57:13;;;;;;;6.20;1.30;;;18.30;62.20;;;;;;5075419;28;20109;-71
2021/06/23 01:59:40;;;;;;;4.63;1.20;;;18.30;62.30;;;;;;5075291;28;20070;-71
2021/06/23 02:02:27;;;;;;;4.18;1.50;;;18.30;62.30;;;;;;5075208;28;20060;-71
2021/06/23 02:05:27;;;;;;;2.55;1.05;;;18.30;62.10;;;;;;5075146;28;20371;-71
2021/06/23 02:08:03;;;;;;;4.47;1.20;;;18.30;61.60;;;;;;5046302;28;20400;-71
2021/06/23 02:10:57;;;;;;;3.53;1.08;;;18.20;62.20;;;;;;5075129;28;20044;-71
2021/06/23 02:13:29;;;;;;;2.40;0.98;;;18.20;62.10;;;;;;5075087;28;20562;-71
2021/06/23 02:16:10;;;;;;;4.10;1.10;;;18.20;62.10;;;;;;5074817;28;20131;-72
2021/06/23 02:18:37;;;;;;;2.50;1.20;;;18.20;62.00;;;;;;5086129;28;20043;-71
2021/06/23 02:21:05;;;;;;;2.70;1.15;;;18.20;62.30;;;;;;5099405;28;20036;-71
2021/06/23 02:23:35;;;;;;;5.10;1.42;;;18.20;62.30;;;;;;5099642;28;20044;-71
2021/06/23 02:26:01;;;;;;;3.45;0.98;;;18.20;62.10;;;;;;5098665;28;20159;-71
2021/06/23 02:28:27;;;;;;;2.03;0.85;;;18.20;62.00;;;;;;5099204;28;20052;-71
2021/06/23 02:30:53;;;;;;;3.75;1.23;;;18.20;62.20;;;;;;5099381;28;20048;-71
2021/06/23 02:33:20;;;;;;;4.90;1.30;;;18.20;62.10;;;;;;5099126;28;20081;-71
2021/06/23 02:35:48;;;;;;;5.18;1.58;;;18.20;62.00;;;;;;5099100;28;20052;-70
2021/06/23 02:38:14;;;;;;;4.35;1.13;;;18.20;62.00;;;;;;5099227;28;20044;-70
2021/06/23 02:40:40;;;;;;;3.35;0.82;;;18.20;62.10;;;;;;5098832;28;20139;-70
2021/06/23 02:43:06;;;;;;;5.20;1.42;;;18.20;61.90;;;;;;5098742;28;20075;-71
2021/06/23 02:45:32;;;;;;;4.25;1.13;;;18.20;62.00;;;;;;5098682;28;20052;-71
2021/06/23 02:47:58;;;;;;;4.95;1.00;;;18.20;61.90;;;;;;5098793;28;20054;-70
2021/06/23 02:50:31;;;;;;;5.40;1.73;;;18.20;62.00;;;;;;5099076;28;20048;-71
2021/06/23 02:52:58;;;;;;;2.85;1.20;;;18.20;62.00;;;;;;5098631;28;20127;-71
2021/06/23 02:55:25;;;;;;;3.28;1.23;;;18.20;62.00;;;;;;5098545;28;20052;-71
2021/06/23 02:57:52;;;;;;;3.40;0.90;;;18.20;61.90;;;;;;5098530;28;20048;-70
2021/06/23 03:00:18;;;;;;;3.25;1.02;;;18.20;62.00;;;;;;5098284;28;20044;-71
2021/06/23 03:02:44;;;;;;;5.28;1.10;;;18.20;62.00;;;;;;5098519;28;20127;-71
2021/06/23 03:05:11;;;;;;;3.97;1.10;;;18.30;62.00;;;;;;5098482;28;20131;-71
2021/06/23 03:07:36;;;;;;;2.80;1.00;;;18.20;62.00;;;;;;5098573;28;20044;-71
2021/06/23 03:10:08;;;;;;;3.15;0.90;;;18.20;62.10;;;;;;5098323;28;20124;-71
2021/06/23 03:12:34;;;;;;;6.10;1.48;;;18.20;62.00;;;;;;5098070;28;20469;-71
2021/06/23 03:15:01;;;;;;;3.50;1.05;;;18.20;62.10;;;;;;5098541;28;20078;-71
2021/06/23 03:17:27;;;;;;;2.63;0.82;;;18.20;62.20;;;;;;5098483;28;20069;-71
2021/06/23 03:19:53;;;;;;;6.93;1.70;;;18.20;62.20;;;;;;5079119;28;20119;-70
2021/06/23 03:22:19;;;;;;;3.40;1.20;;;18.20;62.20;;;;;;5077680;28;20155;-71
2021/06/23 03:24:45;;;;;;;4.38;1.38;;;18.20;62.90;;;;;;5078518;28;20064;-71
2021/06/23 03:27:11;;;;;;;6.25;1.33;;;18.20;62.30;;;;;;5077828;28;20463;-70
2021/06/23 03:29:38;;;;;;;3.13;0.90;;;18.20;62.30;;;;;;5077213;28;20048;-71
2021/06/23 03:32:08;;;;;;;5.57;1.10;;;18.20;62.40;;;;;;5077659;28;20055;-70
2021/06/23 03:34:34;;;;;;;5.18;1.20;;;18.10;62.30;;;;;;5077828;28;20054;-70
2021/06/23 03:37:00;;;;;;;2.92;1.00;;;18.20;62.50;;;;;;5077541;28;20064;-70
2021/06/23 03:39:26;;;;;;;4.50;0.95;;;18.20;62.50;;;;;;5077204;28;20090;-71
2021/06/23 03:41:52;;;;;;;2.35;0.77;;;18.20;62.40;;;;;;5077727;28;20052;-70
2021/06/23 03:44:18;;;;;;;3.47;0.77;;;18.10;62.40;;;;;;5077851;28;20049;-70
2021/06/23 03:46:44;;;;;;;7.18;1.70;;;18.10;62.30;;;;;;5077704;28;20048;-70
2021/06/23 03:49:10;;;;;;;3.28;1.42;;;18.10;62.40;;;;;;5077808;28;20076;-70
2021/06/23 03:51:36;;;;;;;4.72;1.27;;;18.10;62.30;;;;;;5077545;28;20055;-70
2021/06/23 03:54:02;;;;;;;4.25;0.90;;;18.10;62.30;;;;;;5077560;28;20049;-71
2021/06/23 03:56:29;;;;;;;4.03;1.10;;;18.20;62.40;;;;;;5076927;28;20045;-71
2021/06/23 03:58:55;;;;;;;5.80;1.15;;;18.20;62.40;;;;;;5077157;28;20095;-71
2021/06/23 04:01:23;;;;;;;3.58;1.23;;;18.20;62.50;;;;;;5077056;28;20137;-70
2021/06/23 04:03:48;;;;;;;2.95;1.20;;;18.10;62.50;;;;;;5077832;28;20072;-71
2021/06/23 04:06:14;;;;;;;2.50;1.20;;;18.10;62.50;;;;;;5077359;28;20059;-70
2021/06/23 04:08:41;;;;;;;5.82;1.10;;;18.20;62.60;;;;;;5077668;28;20101;-71
2021/06/23 04:11:07;;;;;;;4.95;1.38;;;18.10;62.50;;;;;;5077263;28;20072;-71
2021/06/23 04:13:33;;;;;;;4.55;1.48;;;18.10;62.50;;;;;;5076916;28;20406;-71
2021/06/23 04:15:59;;;;;;;6.68;1.70;;;18.10;62.50;;;;;;5077020;28;20123;-71
2021/06/23 04:18:26;;;;;;;3.10;0.98;;;18.10;62.50;;;;;;5083630;28;20060;-71
2021/06/23 04:20:55;;;;;;;3.80;0.73;;;18.10;62.50;;;;;;5097470;28;20075;-71
2021/06/23 04:23:21;;;;;;;4.63;1.10;;;18.10;62.50;;;;;;5096867;28;20052;-70
2021/06/23 04:25:47;;;;;;;3.72;0.80;;;18.10;62.60;;;;;;5097357;28;20044;-70
2021/06/23 04:28:16;;;;;;;3.40;1.30;;;18.10;62.60;;;;;;5099470;28;20036;-68
2021/06/23 04:30:42;;;;;;;3.28;1.25;;;18.10;62.80;;;;;;5106786;28;20500;-70
2021/06/23 04:33:08;;;;;;;6.40;1.08;;;18.10;62.90;;;;;;5096877;28;20421;-72
2021/06/23 04:35:42;;;;;;;3.65;1.33;;;18.10;63.00;;;;;;5114589;28;20093;-69
2021/06/23 04:38:08;;;;;;;7.10;1.58;;;18.10;63.10;;;;;;5116842;28;20481;-69
2021/06/23 04:40:33;;;;;;;6.20;1.55;;;18.10;63.20;;;;;;5116812;28;20071;-71
2021/06/23 04:42:59;;;;;;;3.30;1.20;;;18.10;63.70;;;;;;5117167;28;20048;-70
2021/06/23 04:45:26;;;;;;;4.20;1.48;;;18.10;63.30;;;;;;5117073;28;20044;-70
2021/06/23 04:47:52;;;;;;;5.50;1.60;;;18.10;62.90;;;;;;5098331;28;20370;-70
2021/06/23 04:50:18;;;;;;;7.00;2.10;;;18.10;62.70;;;;;;5096751;28;20040;-75
2021/06/23 04:52:44;;;;;;;3.92;1.77;;;18.10;62.60;;;;;;5096683;28;20055;-70
2021/06/23 04:55:16;;;;;;;8.10;1.67;;;18.10;62.60;;;;;;5095969;28;20040;-71
2021/06/23 04:57:42;;;;;;;7.40;1.67;;;18.10;62.60;;;;;;5096718;28;20063;-70
2021/06/23 05:00:09;;;;;;;6.78;1.88;;;18.10;62.70;;;;;;5095057;28;20047;-70
2021/06/23 05:02:35;;;;;;;11.02;2.40;;;18.10;62.60;;;;;;5095902;28;20052;-69
2021/06/23 05:05:01;;;;;;;10.15;1.92;;;18.10;62.50;;;;;;5096126;28;20417;-69
2021/06/23 05:07:27;;;;;;;7.47;1.52;;;18.10;62.80;;;;;;5096120;28;20101;-78
2021/06/23 05:09:53;;;;;;;7.93;1.98;;;18.10;63.90;;;;;;5096706;28;20044;-71
2021/06/23 05:12:19;;;;;;;5.07;1.98;;;18.10;64.00;;;;;;5096842;28;20442;-71
2021/06/23 05:14:45;;;;;;;7.75;2.17;;;18.10;64.10;;;;;;5078356;28;20129;-71
2021/06/23 05:17:11;;;;;;;6.07;1.23;;;18.10;64.30;;;;;;5076475;28;20040;-70
2021/06/23 05:19:38;;;;;;;7.28;1.42;;;18.10;64.50;;;;;;5075639;28;20097;-71
2021/06/23 05:22:04;;;;;;;8.77;1.85;;;18.10;64.70;;;;;;5075583;28;20076;-75
2021/06/23 05:24:31;;;;;;;6.45;1.90;;;18.10;64.60;;;;;;5092781;28;20375;-72
2021/06/23 05:26:57;;;;;;;5.00;1.50;;;18.10;65.30;;;;;;5096102;28;20059;-69
2021/06/23 05:29:23;;;;;;;10.40;1.77;;;18.10;65.20;;;;;;5095904;28;20047;-70
2021/06/23 05:31:50;;;;;;;8.48;1.77;;;18.10;65.30;;;;;;5095441;28;20359;-70
2021/06/23 05:34:15;;;;;;;6.82;1.52;;;18.10;65.10;;;;;;5095218;28;20044;-70
2021/06/23 05:36:41;;;;;;;4.80;1.60;;;18.10;64.70;;;;;;5095641;28;20054;-70
2021/06/23 05:39:07;;;;;;;6.75;1.35;;;18.10;64.80;;;;;;5085993;28;20040;-69
2021/06/23 05:41:33;;;;;;;6.97;1.77;;;18.10;64.70;;;;;;5106234;28;20047;-70
2021/06/23 05:43:59;;;;;;;5.80;1.50;;;18.00;64.60;;;;;;5098713;28;20102;-70
2021/06/23 05:46:25;;;;;;;6.68;1.50;;;18.00;64.90;;;;;;5100562;28;20044;-69
2021/06/23 05:48:51;;;;;;;11.65;2.10;;;18.10;65.40;;;;;;5095804;28;20060;-70
2021/06/23 05:51:17;;;;;;;10.07;2.05;;;18.10;65.60;;;;;;5093949;28;20427;-77
2021/06/23 05:53:43;;;;;;;13.55;1.73;;;18.10;65.80;;;;;;5090882;28;20041;-72
2021/06/23 05:56:09;;;;;;;8.15;1.75;;;18.10;65.70;;;;;;5089856;28;20082;-70
2021/06/23 05:58:35;;;;;;;10.20;2.22;;;18.10;65.40;;;;;;5095512;28;20128;-70
2021/06/23 06:01:02;;;;;;;6.57;1.83;;;18.10;65.30;;;;;;5094811;28;20055;-70
2021/06/23 06:03:30;;;;;;;7.30;1.40;;;18.10;65.60;;;;;;5095319;28;20050;-70
2021/06/23 06:05:55;;;;;;;8.45;1.70;;;18.10;65.60;;;;;;5095245;28;20119;-70
2021/06/23 06:08:21;;;;;;;17.33;2.08;;;18.10;65.60;;;;;;5095160;28;20058;-71
2021/06/23 06:10:47;;;;;;;6.05;1.65;;;18.10;65.80;;;;;;5078136;28;20058;-70
2021/06/23 06:13:13;;;;;;;11.05;1.85;;;18.10;66.30;;;;;;5074966;28;20055;-69
2021/06/23 06:15:39;;;;;;;12.88;2.45;;;18.10;66.40;;;;;;5075363;28;20051;-68
2021/06/23 06:18:07;;;;;;;10.75;2.83;;;18.20;66.70;;;;;;5074867;28;20049;-69
2021/06/23 06:20:34;;;;;;;7.90;1.67;;;18.20;65.90;;;;;;5074910;28;20051;-73
2021/06/23 06:23:00;;;;;;;15.75;2.00;;;18.30;65.10;;;;;;5075555;28;20045;-75
2021/06/23 06:25:26;;;;;;;7.60;1.48;;;18.30;64.50;;;;;;5080273;28;20066;-79
2021/06/23 06:27:52;;;;;;;8.32;1.67;;;18.20;64.10;;;;;;5075016;28;20067;-75
2021/06/23 06:30:19;;;;;;;12.05;2.00;;;18.20;63.90;;;;;;5089577;28;20040;-70
2021/06/23 06:32:45;;;;;;;9.18;2.20;;;18.20;63.90;;;;;;5095326;28;20047;-72
2021/06/23 06:35:11;;;;;;;8.38;1.88;;;18.20;63.10;;;;;;5089734;28;20036;-72
2021/06/23 06:37:37;;;;;;;5.88;1.88;;;18.20;62.50;;;;;;5074824;28;20048;-72
2021/06/23 06:40:03;;;;;;;7.82;2.13;;;18.10;62.00;;;;;;5075368;28;20048;-71
2021/06/23 06:42:29;;;;;;;4.13;1.35;;;18.00;62.00;;;;;;5074430;28;20135;-72
2021/06/23 06:44:55;;;;;;;5.05;1.17;;;18.00;61.50;;;;;;5074303;28;20112;-72
2021/06/23 06:47:20;;;;;;;7.13;1.65;;;17.80;61.50;;;;;;5074284;28;20110;-72
2021/06/23 06:49:46;;;;;;;12.18;1.75;;;17.70;62.20;;;;;;5074282;28;20106;-70
2021/06/23 06:52:12;;;;;;;4.53;1.15;;;17.70;63.00;;;;;;5074418;28;20059;-70
2021/06/23 06:54:38;;;;;;;5.20;1.40;;;17.70;63.10;;;;;;5089415;28;20420;-69
2021/06/23 06:57:04;;;;;;;6.75;1.45;;;17.80;63.10;;;;;;5094369;28;20051;-72
2021/06/23 06:59:30;;;;;;;6.57;1.50;;;17.90;62.10;;;;;;5087028;28;20046;-69
2021/06/23 07:01:56;;;;;;;4.80;1.25;;;17.90;60.70;;;;;;5074222;28;20119;-70
2021/06/23 07:04:23;;;;;;;5.47;0.98;;;17.80;60.40;;;;;;5074763;28;20065;-71
2021/06/23 07:06:49;;;;;;;7.10;1.75;;;17.80;60.70;;;;;;5078394;28;20076;-69
2021/06/23 07:09:15;;;;;;;4.38;1.15;;;17.70;60.60;;;;;;5078250;28;20475;-70
2021/06/23 07:11:41;;;;;;;7.10;1.38;;;17.60;61.00;;;;;;5078387;28;20052;-70
2021/06/23 07:14:07;;;;;;;6.07;1.92;;;17.60;61.70;;;;;;5077800;28;20447;-70
2021/06/23 07:16:33;;;;;;;6.55;1.58;;;17.60;62.10;;;;;;5077937;28;20051;-70
2021/06/23 07:18:59;;;;;;;8.20;2.15;;;17.60;62.20;;;;;;5076726;28;20052;-69
2021/06/23 07:21:25;;;;;;;6.28;1.70;;;17.70;62.50;;;;;;5077818;28;20050;-71
2021/06/23 07:23:57;;;;;;;2.50;1.13;;;17.70;62.50;;;;;;5078254;28;20507;-70
2021/06/23 07:26:27;;;;;;;4.20;1.10;;;17.80;62.40;;;;;;5077852;28;20136;-71
2021/06/23 07:28:54;;;;;;;6.72;1.33;;;17.80;62.10;;;;;;5077862;28;20044;-70
2021/06/23 07:31:38;;;;;;;6.70;1.48;;;17.80;62.00;;;;;;5078392;28;20106;-70
2021/06/23 07:36:40;;;;;;;7.90;1.73;;;17.90;62.00;;;;;;5077621;28;20016;-70
2021/06/23 07:39:09;;;;;;;6.15;1.80;;;17.90;61.80;;;;;;5077297;28;20443;-70
2021/06/23 07:41:37;;;;;;;8.68;1.60;;;17.90;61.60;;;;;;5077422;28;20049;-71
2021/06/23 07:44:03;;;;;;;5.80;1.50;;;17.90;61.50;;;;;;5077487;28;20047;-71
2021/06/23 07:46:36;;;;;;;6.90;2.00;;;17.90;61.60;;;;;;5077046;28;20452;-75
2021/06/23 07:49:03;;;;;;;7.27;1.50;;;17.90;61.50;;;;;;5077430;28;20040;-71
2021/06/23 08:10:18;;;;;;;7.95;1.80;;;18.00;62.50;;;;;;5076977;28;20051;-71
2021/06/23 08:15:24;;;;;;;11.60;1.77;;;18.00;62.20;;;;;;5077435;28;20056;-72
2021/06/23 08:17:50;;;;;;;10.07;1.63;;;18.10;62.30;;;;;;5077673;28;20037;-71
2021/06/23 08:20:16;;;;;;;8.02;1.80;;;18.10;62.40;;;;;;5076936;28;20127;-71
2021/06/23 08:22:42;;;;;;;8.82;1.58;;;18.10;62.50;;;;;;5077000;28;20048;-72
2021/06/23 08:25:08;;;;;;;11.95;2.05;;;18.10;62.50;;;;;;5076868;28;20071;-70
2021/06/23 08:27:34;;;;;;;9.50;1.95;;;18.10;62.60;;;;;;5077262;28;20127;-72
2021/06/23 08:30:00;;;;;;;13.75;1.90;;;18.10;62.70;;;;;;5076578;28;20033;-71
2021/06/23 08:32:26;;;;;;;5.55;1.58;;;18.10;62.90;;;;;;5076776;28;20336;-71
2021/06/23 08:34:52;;;;;;;7.53;1.95;;;18.10;63.00;;;;;;5076689;28;20061;-70
2021/06/23 08:37:18;;;;;;;7.18;1.40;;;18.20;63.10;;;;;;5076870;28;20044;-71
2021/06/23 08:39:44;;;;;;;16.80;2.17;;;18.10;63.10;;;;;;5076550;28;20048;-70
2021/06/23 08:42:11;;;;;;;5.70;1.20;;;18.10;63.20;;;;;;5076495;28;20083;-72
2021/06/23 08:44:37;;;;;;;7.38;1.52;;;18.20;63.40;;;;;;5076239;28;20119;-70
2021/06/23 08:47:03;;;;;;;4.93;1.33;;;18.20;63.50;;;;;;5076165;28;20120;-70
2021/06/23 08:49:29;;;;;;;8.10;2.08;;;18.20;63.50;;;;;;5076221;28;20048;-70
2021/06/23 08:51:57;;;;;;;3.90;1.50;;;18.20;63.60;;;;;;5076005;28;20102;-71
2021/06/23 08:54:23;;;;;;;4.53;1.50;;;18.20;63.60;;;;;;5076051;28;20040;-70
2021/06/23 08:56:49;;;;;;;4.65;1.48;;;18.20;63.70;;;;;;5075866;28;20043;-71
2021/06/23 08:59:15;;;;;;;4.63;1.75;;;18.20;63.70;;;;;;5076001;28;20113;-71
2021/06/23 09:01:42;;;;;;;5.50;1.73;;;18.20;63.80;;;;;;5075556;28;20397;-70
2021/06/23 09:04:15;;;;;;;2.95;1.27;;;18.20;63.80;;;;;;5076236;28;20048;-70
2021/06/23 09:06:50;;;;;;;3.17;1.52;;;18.20;63.90;;;;;;5076020;28;20049;-70
2021/06/23 09:09:34;;;;;;;5.13;1.55;;;18.20;63.90;;;;;;5075957;28;20044;-70
2021/06/23 09:12:02;;;;;;;;;;;18.30;64.00;;;;;;5076184;28;20106;-71
2021/06/23 09:14:30;;;;;;;5.05;1.50;;;18.20;63.90;;;;;;5075795;28;19920;-70
2021/06/23 09:17:05;;;;;;;4.97;1.85;;;18.20;64.00;;;;;;5075845;28;20045;-70
2021/06/23 09:19:34;;;;;;;4.53;1.60;;;18.20;64.10;;;;;;5076065;28;20044;-70
2021/06/23 09:22:00;;;;;;;5.13;1.40;;;18.20;64.10;;;;;;5075690;28;20456;-70
2021/06/23 09:24:41;;;;;;;5.65;1.73;;;18.30;64.20;;;;;;5075724;28;20056;-71
2021/06/23 09:27:44;;;;;;;4.80;1.55;;;18.20;64.20;;;;;;5074685;28;20040;-71
2021/06/23 09:30:25;;;;;;;6.78;1.58;;;18.30;64.20;;;;;;5065983;28;20052;-72
2021/06/23 09:33:04;;;;;;;3.58;1.65;;;18.30;64.20;;;;;;5075425;28;20131;-70
2021/06/23 09:35:30;;;;;;;8.48;1.23;;;18.30;64.30;;;;;;5076243;28;20124;-70
2021/06/23 09:37:56;;;;;;;4.18;1.70;;;18.30;64.40;;;;;;5075022;28;20131;-70
2021/06/23 09:40:23;;;;;;;4.78;1.50;;;18.20;64.30;;;;;;5074869;28;20044;-70
2021/06/23 09:42:54;;;;;;;6.22;1.77;;;18.30;64.30;;;;;;5075295;28;20079;-71
2021/06/23 09:45:20;;;;;;;2.38;1.30;;;18.30;64.40;;;;;;5075292;28;20087;-68
2021/06/23 09:47:48;;;;;;;4.75;1.50;;;18.30;64.40;;;;;;5075336;28;20110;-73
2021/06/23 09:50:25;;;;;;;4.75;1.30;;;18.30;64.40;;;;;;5075061;28;20479;-70
2021/06/23 09:52:57;;;;;;;7.38;1.23;;;18.30;64.50;;;;;;5075376;28;20056;-70
2021/06/23 09:55:38;;;;;;;3.97;1.40;;;18.30;64.60;;;;;;5075025;28;20409;-71
2021/06/23 09:58:20;;;;;;;4.40;1.33;;;18.30;64.50;;;;;;5074852;28;20075;-70
2021/06/23 10:00:58;;;;;;;4.80;1.50;;;18.30;64.60;;;;;;5074724;28;20545;-70
2021/06/23 10:03:56;;;;;;;5.68;2.08;;;18.30;64.70;;;;;;5074729;28;20511;-71
2021/06/23 10:06:34;;;;;;;4.32;1.48;;;18.30;64.70;;;;;;5075529;28;20104;-70
2021/06/23 10:09:24;;;;;;;3.05;1.40;;;18.30;64.80;;;;;;5075021;28;20419;-69
2021/06/23 10:12:01;;;;;;;5.10;1.23;;;18.30;64.80;;;;;;5075087;28;20055;-71
2021/06/23 10:14:29;;;;;;;6.93;1.77;;;18.30;64.90;;;;;;5074898;28;20044;-70
2021/06/23 10:16:57;;;;;;;3.35;1.42;;;18.30;64.90;;;;;;5075754;28;20450;-70
2021/06/23 10:19:23;;;;;;;4.60;1.10;;;18.30;64.90;;;;;;5075242;28;20447;-70
2021/06/23 10:21:49;;;;;;;3.55;1.70;;;18.30;65.00;;;;;;5075616;28;20517;-70
2021/06/23 10:24:16;;;;;;;4.43;1.40;;;18.30;65.00;;;;;;5074983;28;20052;-70
2021/06/23 10:26:48;;;;;;;3.70;1.25;;;18.30;65.00;;;;;;5075208;28;20051;-70
2021/06/23 10:29:19;;;;;;;5.00;1.58;;;18.30;65.10;;;;;;5075518;28;20041;-71
2021/06/23 10:31:46;;;;;;;3.47;1.50;;;18.30;65.20;;;;;;5075206;28;20048;-71
2021/06/23 10:34:12;;;;;;;4.03;1.50;;;18.30;65.20;;;;;;5074830;28;20494;-71
2021/06/23 10:36:38;;;;;;;2.10;1.20;;;18.30;65.20;;;;;;5074958;28;20040;-70
2021/06/23 10:39:05;;;;;;;3.88;1.63;;;18.30;65.30;;;;;;5076278;28;20463;-70
2021/06/23 10:41:39;;;;;;;5.45;1.67;;;18.30;65.30;;;;;;5078780;28;20048;-71
2021/06/23 10:44:18;;;;;;;4.32;1.83;;;18.30;65.40;;;;;;5079479;28;20044;-70
2021/06/23 10:46:47;;;;;;;5.25;1.33;;;18.30;65.40;;;;;;5078598;28;20075;-69
2021/06/23 10:49:16;;;;;;;3.03;1.38;;;18.30;66.10;;;;;;5078917;28;20040;-71
2021/06/23 10:51:43;;;;;;;2.63;1.10;;;18.30;65.50;;;;;;5078247;28;20059;-71
2021/06/23 10:54:27;;;;;;;4.10;1.38;;;18.30;66.10;;;;;;5078741;28;20351;-73
2021/06/23 10:56:52;;;;;;;6.47;1.40;;;18.40;65.30;;;;;;5078609;28;20061;-70
2021/06/23 10:59:32;;;;;;;5.55;1.58;;;18.40;65.40;;;;;;5077645;28;20376;-70
2021/06/23 11:02:12;;;;;;;5.72;1.20;;;18.40;65.60;;;;;;5078098;28;20060;-71
2021/06/23 11:05:05;;;;;;;5.50;1.50;;;18.40;65.60;;;;;;5078031;28;20433;-72
2021/06/23 11:07:37;;;;;;;;;;;18.40;65.70;;;;;;5078603;28;20351;-70
2021/06/23 11:10:13;;;;;;;6.50;1.85;;;18.30;65.50;;;;;;5078355;28;20023;-70
2021/06/23 11:12:55;;;;;;;2.70;1.25;;;18.40;65.80;;;;;;5078428;28;20091;-71
2021/06/23 11:15:33;;;;;;;4.95;1.38;;;18.40;65.90;;;;;;5078115;28;20072;-70
2021/06/23 11:18:21;;;;;;;10.57;1.70;;;18.40;66.00;;;;;;5078026;28;20047;-70
2021/06/23 11:20:52;;;;;;;9.45;1.95;;;18.40;65.90;;;;;;5076952;28;20073;-69
2021/06/23 11:23:44;;;;;;;6.85;1.55;;;18.40;66.20;;;;;;5078093;28;20102;-69
2021/06/23 11:26:30;;;;;;;3.50;1.17;;;18.40;66.20;;;;;;5078187;28;20109;-68
2021/06/23 11:29:13;;;;;;;9.65;1.65;;;18.40;66.10;;;;;;5077638;28;20044;-69
2021/06/23 11:31:44;;;;;;;6.38;1.38;;;18.40;66.40;;;;;;5078444;28;20052;-69
2021/06/23 11:34:11;;;;;;;4.03;1.70;;;18.40;66.40;;;;;;5096850;28;20772;-71
2021/06/23 11:36:37;;;;;;;7.93;1.42;;;18.40;66.30;;;;;;5096809;28;20052;-70
2021/06/23 11:39:06;;;;;;;11.38;2.13;;;18.40;65.90;;;;;;5097426;28;20043;-70
2021/06/23 11:41:32;;;;;;;11.02;2.38;;;18.50;65.40;;;;;;5097565;28;20405;-71
2021/06/23 11:43:58;;;;;;;16.58;2.15;;;18.50;65.10;;;;;;5097802;28;20173;-70
2021/06/23 11:46:24;;;;;;;9.52;1.95;;;18.50;64.40;;;;;;5097890;28;20065;-72
2021/06/23 11:48:50;;;;;;;14.73;2.65;;;18.50;64.60;;;;;;5097753;28;20060;-70
2021/06/23 11:51:16;;;;;;;7.50;2.05;;;18.50;64.50;;;;;;5096328;28;20042;-70
2021/06/23 11:53:41;;;;;;;10.90;2.30;;;18.50;64.50;;;;;;5098194;28;20421;-70
2021/06/23 11:56:08;;;;;;;7.75;2.08;;;18.50;64.40;;;;;;5095120;28;20044;-70
2021/06/23 11:58:34;;;;;;;8.35;2.10;;;18.50;64.50;;;;;;5097443;28;20444;-70
2021/06/23 12:01:00;;;;;;;11.48;2.33;;;18.50;64.60;;;;;;5097474;28;20070;-69
2021/06/23 12:03:26;;;;;;;9.00;2.72;;;18.50;64.70;;;;;;5092835;28;20337;-70
2021/06/23 12:05:52;;;;;;;14.98;2.55;;;18.50;64.70;;;;;;5088398;28;20503;-69
2021/06/23 12:08:18;;;;;;;15.32;2.90;;;18.50;64.70;;;;;;5097390;28;20116;-68
2021/06/23 12:10:45;;;;;;;12.48;2.40;;;18.50;64.60;;;;;;5097060;28;20123;-68
2021/06/23 12:13:13;;;;;;;11.57;2.72;;;18.60;64.30;;;;;;5097291;28;20443;-70
2021/06/23 12:15:40;;;;;;;11.05;2.33;;;18.60;64.30;;;;;;5095765;28;20071;-70
2021/06/23 12:18:07;;;;;;;14.02;2.53;;;18.60;64.20;;;;;;5096553;28;20506;-70
2021/06/23 12:20:35;;;;;;;10.70;2.03;;;18.60;64.30;;;;;;5097148;28;20051;-71
2021/06/23 12:23:05;;;;;;;9.65;2.20;;;18.60;64.50;;;;;;5097186;28;20052;-69
2021/06/23 12:25:34;;;;;;;7.35;2.33;;;18.60;64.60;;;;;;5097357;28;20348;-70
2021/06/23 12:28:02;;;;;;;7.03;1.70;;;18.60;64.70;;;;;;5096966;28;20044;-71
2021/06/23 12:30:28;;;;;;;7.97;1.95;;;18.50;64.80;;;;;;5097061;28;20050;-70
2021/06/23 12:32:56;;;;;;;8.70;2.05;;;18.60;64.90;;;;;;5097010;28;20451;-70
2021/06/23 12:35:23;;;;;;;6.07;2.33;;;18.60;64.90;;;;;;5096628;28;20068;-70
2021/06/23 12:37:49;;;;;;;7.75;1.98;;;18.60;64.90;;;;;;5096910;28;20047;-70
2021/06/23 12:40:15;;;;;;;7.55;1.80;;;18.60;65.00;;;;;;5096415;28;20059;-70
2021/06/23 12:42:41;;;;;;;8.73;2.00;;;18.60;65.00;;;;;;5096828;28;20123;-70
2021/06/23 12:45:07;;;;;;;8.55;1.70;;;18.60;65.10;;;;;;5096772;28;20454;-71
2021/06/23 12:47:33;;;;;;;10.05;3.00;;;18.60;65.20;;;;;;5096492;28;20051;-70
2021/06/23 12:49:59;;;;;;;9.05;1.70;;;18.60;65.30;;;;;;5096100;28;20044;-71
2021/06/23 12:52:24;;;;;;;9.93;1.83;;;18.60;65.30;;;;;;5096074;28;20451;-71
2021/06/23 12:54:50;;;;;;;9.57;1.70;;;18.60;65.30;;;;;;5096288;28;20467;-70
2021/06/23 12:57:16;;;;;;;9.52;1.98;;;18.70;65.30;;;;;;5096526;28;20118;-76
2021/06/23 12:59:42;;;;;;;13.32;2.05;;;18.70;65.40;;;;;;5096546;28;20040;-71
2021/06/23 13:02:08;;;;;;;5.70;1.63;;;18.70;66.40;;;;;;5095201;28;20047;-71
2021/06/23 13:04:34;;;;;;;10.85;2.53;;;18.70;66.00;;;;;;5096278;28;20113;-71
2021/06/23 13:06:59;;;;;;;7.22;2.10;;;18.70;65.70;;;;;;5096439;28;20051;-71
2021/06/23 13:09:45;;;;;;;5.57;2.20;;;18.70;65.70;;;;;;5095450;28;20519;-71
2021/06/23 13:12:12;;;;;;;14.73;2.28;;;18.70;65.70;;;;;;5096646;28;20122;-71
2021/06/23 13:14:37;;;;;;;12.32;2.20;;;18.70;65.70;;;;;;5096377;28;20087;-71
2021/06/23 13:17:24;;;;;;;9.15;1.63;;;18.70;65.80;;;;;;5095508;28;20055;-75